createdAt,value
2017-10-23T00:02:56.311Z,56.20
2017-10-23T00:06:21.481Z,56.10
2017-10-23T00:09:47.879Z,56.20
2017-10-23T00:13:12.971Z,56.30
2017-10-23T00:16:38.180Z,56.20
2017-10-23T00:20:03.575Z,56.20
2017-10-23T00:23:29.164Z,56.00
2017-10-23T00:26:54.555Z,56.00
2017-10-23T00:30:20.202Z,56.20
2017-10-23T00:33:45.319Z,56.80
2017-10-23T00:37:10.572Z,56.20
2017-10-23T00:40:41.316Z,56.20
2017-10-23T00:44:06.428Z,56.20
2017-10-23T00:47:31.530Z,56.10
2017-10-23T00:50:56.950Z,56.20
2017-10-23T00:54:22.108Z,56.20
2017-10-23T00:57:48.259Z,56.20
2017-10-23T01:01:15.513Z,56.30
2017-10-23T01:04:41.603Z,56.10
2017-10-23T01:08:06.870Z,56.10
2017-10-23T01:11:36.871Z,56.10
2017-10-23T01:15:03.686Z,56.10
2017-10-23T01:18:29.232Z,56.10
2017-10-23T01:21:54.452Z,55.90
2017-10-23T01:25:19.628Z,56.10
2017-10-23T01:28:46.054Z,56.00
2017-10-23T01:32:11.238Z,55.90
2017-10-23T01:35:37.206Z,55.90
2017-10-23T01:39:09.415Z,55.90
2017-10-23T01:42:34.643Z,56.00
2017-10-23T01:46:01.766Z,55.80
2017-10-23T01:49:30.861Z,55.80
2017-10-23T01:52:55.936Z,55.90
2017-10-23T01:56:22.402Z,55.90
2017-10-23T01:59:53.753Z,56.10
2017-10-23T02:03:18.872Z,55.90
2017-10-23T02:06:45.101Z,55.70
2017-10-23T02:10:15.187Z,55.90
2017-10-23T02:13:41.606Z,56.00
2017-10-23T02:17:06.769Z,55.90
2017-10-23T02:20:34.290Z,56.00
2017-10-23T02:23:59.449Z,56.00
2017-10-23T02:27:24.603Z,55.90
2017-10-23T02:30:50.111Z,55.90
2017-10-23T02:34:15.846Z,55.80
2017-10-23T02:37:41.298Z,55.90
2017-10-23T02:41:13.636Z,55.80
2017-10-23T02:44:38.741Z,56.60
2017-10-23T02:48:04.342Z,55.80
2017-10-23T02:51:29.856Z,55.90
2017-10-23T02:54:55.097Z,55.90
2017-10-23T02:58:20.549Z,55.90
2017-10-23T03:02:00.289Z,55.90
2017-10-23T03:05:25.622Z,55.90
2017-10-23T03:08:51.366Z,56.00
2017-10-23T03:12:18.762Z,56.00
2017-10-23T03:15:44.679Z,55.90
2017-10-23T03:23:06.537Z,56.60
2017-10-23T03:26:31.926Z,55.90
2017-10-23T03:29:59.211Z,56.10
2017-10-23T03:33:30.154Z,55.90
2017-10-23T03:36:55.435Z,56.00
2017-10-23T03:40:20.759Z,56.00
2017-10-23T03:43:47.399Z,55.80
2017-10-23T03:47:12.520Z,55.80
2017-10-23T03:50:37.821Z,55.90
2017-10-23T03:54:19.257Z,55.90
2017-10-23T03:57:44.643Z,55.90
2017-10-23T04:01:09.901Z,56.50
2017-10-23T04:04:36.007Z,55.70
2017-10-23T04:08:01.162Z,55.70
2017-10-23T04:11:26.592Z,55.30
2017-10-23T04:14:52.237Z,54.90
2017-10-23T04:18:18.282Z,53.80
2017-10-23T04:21:44.194Z,52.50
2017-10-23T04:25:09.827Z,51.30
2017-10-23T04:28:35.061Z,50.20
2017-10-23T04:32:00.440Z,49.20
2017-10-23T04:35:26.733Z,47.90
2017-10-23T04:38:52.767Z,47.60
2017-10-23T04:42:18.751Z,47.40
2017-10-23T04:45:48.219Z,47.30
2017-10-23T04:49:14.538Z,46.90
2017-10-23T04:52:39.928Z,46.50
2017-10-23T04:56:05.826Z,46.30
2017-10-23T04:59:31.587Z,46.10
2017-10-23T05:02:57.736Z,45.90
2017-10-23T05:06:23.677Z,46.40
2017-10-23T05:09:50.464Z,45.80
2017-10-23T05:13:16.087Z,45.60
2017-10-23T05:16:42.725Z,45.70
2017-10-23T05:20:08.680Z,45.60
2017-10-23T05:23:33.876Z,45.60
2017-10-23T05:26:59.413Z,45.80
2017-10-23T05:30:24.713Z,45.70
2017-10-23T05:33:50.099Z,45.50
2017-10-23T05:37:21.628Z,45.70
2017-10-23T05:40:47.816Z,45.70
2017-10-23T05:44:12.965Z,45.70
2017-10-23T05:51:35.135Z,46.00
2017-10-23T05:55:01.167Z,46.10
2017-10-23T05:58:26.604Z,46.10
2017-10-23T06:01:54.147Z,46.20
2017-10-23T06:05:19.319Z,46.40
2017-10-23T06:08:45.803Z,46.40
2017-10-23T06:12:12.869Z,46.70
2017-10-23T06:15:38.761Z,46.80
2017-10-23T06:19:04.097Z,47.00
2017-10-23T06:22:35.227Z,47.60
2017-10-23T06:26:00.633Z,47.50
2017-10-23T06:29:26.151Z,47.80
2017-10-23T06:32:51.933Z,48.10
2017-10-23T06:36:17.942Z,48.20
2017-10-23T06:39:44.454Z,48.50
2017-10-23T06:43:11.839Z,49.00
2017-10-23T06:46:37.071Z,48.90
2017-10-23T06:50:07.424Z,49.20
2017-10-23T06:53:35.341Z,49.50
2017-10-23T06:57:00.630Z,49.70
2017-10-23T07:00:27.583Z,49.90
2017-10-23T07:03:52.817Z,50.20
2017-10-23T07:07:18.309Z,50.60
2017-10-23T07:10:45.226Z,51.00
2017-10-23T07:14:10.725Z,51.10
2017-10-23T07:17:36.653Z,51.50
2017-10-23T07:21:12.731Z,51.70
2017-10-23T07:24:38.009Z,51.70
2017-10-23T07:28:04.730Z,52.10
2017-10-23T07:31:30.715Z,52.70
2017-10-23T07:34:55.841Z,52.20
2017-10-23T07:38:21.092Z,52.40
2017-10-23T07:41:55.116Z,52.50
2017-10-23T07:45:20.358Z,52.40
2017-10-23T07:48:46.308Z,51.10
2017-10-23T07:52:13.971Z,51.20
2017-10-23T07:55:39.130Z,50.80
2017-10-23T07:59:04.384Z,50.30
2017-10-23T08:06:20.097Z,49.60
2017-10-23T08:09:45.507Z,49.10
2017-10-23T08:13:13.386Z,48.90
2017-10-23T08:16:39.323Z,48.20
2017-10-23T08:20:04.539Z,48.20
2017-10-23T08:23:32.787Z,47.90
2017-10-23T08:26:57.932Z,47.90
2017-10-23T08:30:23.837Z,47.40
2017-10-23T08:33:51.559Z,47.40
2017-10-23T08:37:19.731Z,47.40
2017-10-23T08:40:49.927Z,46.90
2017-10-23T08:44:17.115Z,47.10
2017-10-23T08:47:44.059Z,46.50
2017-10-23T08:51:31.800Z,45.80
2017-10-23T08:54:58.143Z,45.70
2017-10-23T08:58:24.169Z,45.20
2017-10-23T09:01:53.479Z,44.90
2017-10-23T09:05:18.683Z,45.00
2017-10-23T09:08:45.886Z,44.60
2017-10-23T09:12:24.823Z,44.60
2017-10-23T09:15:50.073Z,44.30
2017-10-23T09:19:16.039Z,44.10
2017-10-23T09:22:42.743Z,44.20
2017-10-23T09:26:08.194Z,43.90
2017-10-23T09:29:33.633Z,43.70
2017-10-23T09:33:03.539Z,43.70
2017-10-23T09:36:29.596Z,43.40
2017-10-23T09:39:58.342Z,43.30
2017-10-23T09:43:26.779Z,43.10
2017-10-23T09:46:51.876Z,43.10
2017-10-23T09:50:19.616Z,43.10
2017-10-23T09:53:48.649Z,43.30
2017-10-23T09:57:14.249Z,42.90
2017-10-23T10:00:39.376Z,43.00
2017-10-23T10:04:05.072Z,43.30
2017-10-23T10:07:30.771Z,43.00
2017-10-23T10:10:56.729Z,43.40
2017-10-23T10:14:22.602Z,43.30
2017-10-23T10:17:49.472Z,43.40
2017-10-23T10:21:16.115Z,43.40
2017-10-23T10:24:46.895Z,43.60
2017-10-23T10:28:12.059Z,43.90
2017-10-23T10:31:40.158Z,44.30
2017-10-23T10:35:07.607Z,44.40
2017-10-23T10:38:33.787Z,44.20
2017-10-23T10:41:59.852Z,44.50
2017-10-23T10:45:27.262Z,44.60
2017-10-23T10:48:52.488Z,44.70
2017-10-23T10:52:30.089Z,44.70
2017-10-23T10:55:55.434Z,44.70
2017-10-23T10:59:21.263Z,44.80
2017-10-23T11:02:48.061Z,45.70
2017-10-23T11:06:14.248Z,44.90
2017-10-23T11:09:39.430Z,45.10
2017-10-23T11:13:06.459Z,45.20
2017-10-23T11:16:33.184Z,45.50
2017-10-23T11:20:00.092Z,45.70
2017-10-23T11:23:27.647Z,45.60
2017-10-23T11:26:53.970Z,46.00
2017-10-23T11:30:29.205Z,46.10
2017-10-23T11:33:55.283Z,46.00
2017-10-23T11:37:21.923Z,46.30
2017-10-23T11:40:48.471Z,46.20
2017-10-23T11:44:15.532Z,46.30
2017-10-23T11:47:42.806Z,46.60
2017-10-23T11:51:12.816Z,46.60
2017-10-23T11:54:38.199Z,46.60
2017-10-23T11:58:03.663Z,46.80
2017-10-23T12:01:29.387Z,46.50
2017-10-23T12:04:56.268Z,46.90
2017-10-23T12:08:22.784Z,46.80
2017-10-23T12:11:48.905Z,46.90
2017-10-23T12:15:14.668Z,46.80
2017-10-23T12:18:40.063Z,46.50
2017-10-23T12:22:10.402Z,46.60
2017-10-23T12:25:38.976Z,46.60
2017-10-23T12:29:07.586Z,46.70
2017-10-23T12:32:35.392Z,46.70
2017-10-23T12:36:08.824Z,46.80
2017-10-23T12:39:36.352Z,46.80
2017-10-23T12:43:02.913Z,47.10
2017-10-23T12:46:28.711Z,47.10
2017-10-23T12:49:54.735Z,47.70
2017-10-23T12:53:20.918Z,47.90
2017-10-23T12:56:53.755Z,48.10
2017-10-23T13:00:19.486Z,48.10
2017-10-23T13:03:46.236Z,48.50
2017-10-23T13:07:16.047Z,48.30
2017-10-23T13:10:43.773Z,48.30
2017-10-23T13:14:09.257Z,47.90
2017-10-23T13:17:34.425Z,47.80
2017-10-23T13:21:03.174Z,47.90
2017-10-23T13:24:41.110Z,47.90
2017-10-23T13:28:06.595Z,47.70
2017-10-23T13:31:32.351Z,47.50
2017-10-23T13:34:58.134Z,47.60
2017-10-23T13:38:24.140Z,47.70
2017-10-23T13:41:49.318Z,47.70
2017-10-23T13:45:15.780Z,47.50
2017-10-23T13:48:41.477Z,47.40
2017-10-23T13:52:06.776Z,47.50
2017-10-23T13:55:39.411Z,47.70
2017-10-23T13:59:06.652Z,47.70
2017-10-23T14:02:32.993Z,47.30
2017-10-23T14:05:59.641Z,47.40
2017-10-23T14:09:25.124Z,47.50
2017-10-23T14:12:51.295Z,47.50
2017-10-23T14:16:19.827Z,47.50
2017-10-23T14:19:45.935Z,47.10
2017-10-23T14:23:12.038Z,47.40
2017-10-23T14:26:39.487Z,47.40
2017-10-23T14:30:04.862Z,47.20
2017-10-23T14:33:31.248Z,46.60
2017-10-23T14:36:59.172Z,46.60
2017-10-23T14:40:24.544Z,46.60
2017-10-23T14:43:50.504Z,46.30
2017-10-23T14:47:38.064Z,46.10
2017-10-23T14:51:04.438Z,45.80
2017-10-23T14:54:31.124Z,45.70
2017-10-23T14:57:59.492Z,45.70
2017-10-23T15:01:25.899Z,45.80
2017-10-23T15:04:51.346Z,45.40
2017-10-23T15:08:17.350Z,45.30
2017-10-23T15:11:44.256Z,45.30
2017-10-23T15:15:22.950Z,45.00
2017-10-23T15:18:48.529Z,44.90
2017-10-23T15:22:15.304Z,45.00
2017-10-23T15:25:41.367Z,45.00
2017-10-23T15:29:06.921Z,44.80
2017-10-23T15:36:29.318Z,45.00
2017-10-23T15:39:56.232Z,45.00
2017-10-23T15:43:33.007Z,45.40
2017-10-23T15:46:58.215Z,44.90
2017-10-23T15:50:23.420Z,45.10
2017-10-23T15:53:49.086Z,45.30
2017-10-23T15:57:14.826Z,45.30
2017-10-23T16:00:41.352Z,45.40
2017-10-23T16:04:07.626Z,45.70
2017-10-23T16:07:36.337Z,45.00
2017-10-23T16:11:01.914Z,45.20
2017-10-23T16:14:27.148Z,46.10
2017-10-23T16:17:52.264Z,45.60
2017-10-23T16:21:17.375Z,45.60
2017-10-23T16:24:42.606Z,45.40
2017-10-23T16:28:07.863Z,45.60
2017-10-23T16:31:33.016Z,45.90
2017-10-23T16:34:58.248Z,46.20
2017-10-23T16:38:23.563Z,46.50
2017-10-23T16:41:48.740Z,46.60
2017-10-23T16:45:14.941Z,46.90
2017-10-23T16:48:40.928Z,47.40
2017-10-23T16:52:06.154Z,47.40
2017-10-23T16:55:37.731Z,47.70
2017-10-23T16:59:04.748Z,47.80
2017-10-23T17:02:31.592Z,48.10
2017-10-23T17:06:01.180Z,48.40
2017-10-23T17:09:26.653Z,48.30
2017-10-23T17:12:51.911Z,47.80
2017-10-23T17:16:17.313Z,47.90
2017-10-23T17:19:42.528Z,48.00
2017-10-23T17:23:07.632Z,48.00
2017-10-23T17:26:34.553Z,47.50
2017-10-23T17:30:00.106Z,47.60
2017-10-23T17:33:26.117Z,48.00
2017-10-23T17:37:05.098Z,48.20
2017-10-23T17:40:30.346Z,48.20
2017-10-23T17:43:55.483Z,48.30
2017-10-23T17:47:22.698Z,48.60
2017-10-23T17:50:48.677Z,48.80
2017-10-23T17:54:13.919Z,48.90
2017-10-23T17:57:40.540Z,49.10
2017-10-23T18:01:05.783Z,49.40
2017-10-23T18:04:31.738Z,49.50
2017-10-23T18:07:57.585Z,49.70
2017-10-23T18:11:23.507Z,50.30
2017-10-23T18:14:48.671Z,50.30
2017-10-23T18:18:19.771Z,50.30
2017-10-23T18:21:45.323Z,50.50
2017-10-23T18:25:10.964Z,50.70
2017-10-23T18:28:36.455Z,50.90
2017-10-23T18:32:03.552Z,51.20
2017-10-23T18:35:30.428Z,51.20
2017-10-23T18:39:00.311Z,51.30
2017-10-23T18:42:25.646Z,51.30
2017-10-23T18:45:51.501Z,51.50
2017-10-23T18:49:17.777Z,51.60
2017-10-23T18:52:46.080Z,51.70
2017-10-23T18:56:16.681Z,51.90
2017-10-23T18:59:44.974Z,51.90
2017-10-23T19:03:10.533Z,51.90
2017-10-23T19:06:46.102Z,52.40
2017-10-23T19:10:14.802Z,52.10
2017-10-23T19:13:46.533Z,52.10
2017-10-23T19:21:37.866Z,52.30
2017-10-23T19:25:06.647Z,52.50
2017-10-23T19:28:37.254Z,52.40
2017-10-23T19:32:05.936Z,52.30
2017-10-23T19:35:34.199Z,52.30
2017-10-23T19:39:00.778Z,52.40
2017-10-23T19:42:28.196Z,52.50
2017-10-23T19:45:54.482Z,52.30
2017-10-23T19:49:19.898Z,52.20
2017-10-23T19:52:46.356Z,52.20
2017-10-23T19:56:12.587Z,52.10
2017-10-23T19:59:37.979Z,52.20
2017-10-23T20:03:03.542Z,52.20
2017-10-23T20:06:29.370Z,52.30
2017-10-23T20:09:54.889Z,52.30
2017-10-23T20:13:20.282Z,52.30
2017-10-23T20:16:46.281Z,52.30
2017-10-23T20:20:12.044Z,52.50
2017-10-23T20:23:40.393Z,52.70
2017-10-23T20:27:06.783Z,52.60
2017-10-23T20:30:32.976Z,52.70
2017-10-23T20:33:58.401Z,52.70
2017-10-23T20:37:25.943Z,52.90
2017-10-23T20:40:51.594Z,52.90
2017-10-23T20:44:17.014Z,52.90
2017-10-23T20:47:44.720Z,53.10
2017-10-23T20:51:10.265Z,53.10
2017-10-23T20:54:36.187Z,53.20
2017-10-23T20:58:03.215Z,53.20
2017-10-23T21:01:28.970Z,53.30
2017-10-23T21:04:54.454Z,53.40
2017-10-23T21:08:20.385Z,53.50
2017-10-23T21:11:46.125Z,53.50
2017-10-23T21:15:11.586Z,53.60
2017-10-23T21:18:37.076Z,53.50
2017-10-23T21:22:02.582Z,53.60
2017-10-23T21:25:28.113Z,53.60
2017-10-23T21:28:53.938Z,53.60
2017-10-23T21:32:20.169Z,54.20
2017-10-23T21:35:45.541Z,53.60
2017-10-23T21:39:11.350Z,53.60
2017-10-23T21:42:36.737Z,53.60
2017-10-23T21:46:02.256Z,53.60
2017-10-23T21:49:29.153Z,53.60
2017-10-23T21:52:54.555Z,53.60
2017-10-23T21:56:20.015Z,53.50
2017-10-23T21:59:46.467Z,53.60
2017-10-23T22:03:13.397Z,53.70
2017-10-23T22:06:38.957Z,53.70
2017-10-23T22:10:04.962Z,53.70
2017-10-23T22:13:30.473Z,53.70
2017-10-23T22:16:55.981Z,53.80
2017-10-23T22:20:21.436Z,53.70
2017-10-23T22:23:47.580Z,53.80
2017-10-23T22:27:12.965Z,53.80
2017-10-23T22:30:40.085Z,53.80
2017-10-23T22:34:05.786Z,53.80
2017-10-23T22:37:33.434Z,53.80
2017-10-23T22:40:59.182Z,53.80
2017-10-23T22:44:24.759Z,53.80
2017-10-23T22:47:50.075Z,53.80
2017-10-23T22:51:16.398Z,53.90
2017-10-23T22:54:43.060Z,53.80
2017-10-23T22:58:09.131Z,53.80
2017-10-23T23:01:35.222Z,53.80
2017-10-23T23:05:00.841Z,53.80
2017-10-23T23:08:28.322Z,53.90
2017-10-23T23:11:55.720Z,53.90
2017-10-23T23:15:21.468Z,53.90
2017-10-23T23:18:46.885Z,53.90
2017-10-23T23:22:12.466Z,53.80
2017-10-23T23:25:37.940Z,53.90
2017-10-23T23:29:03.905Z,53.80
2017-10-23T23:32:29.590Z,53.90
2017-10-23T23:36:35.146Z,53.90
2017-10-23T23:40:00.541Z,53.90
2017-10-23T23:43:26.236Z,53.90
2017-10-23T23:46:52.118Z,53.90
2017-10-23T23:50:18.961Z,53.90
2017-10-23T23:53:45.595Z,53.90
2017-10-23T23:57:11.621Z,53.90
